NCAR-RAP Real-Time Weather Data

Output produced by METARs form (08 May 2021  00:21 UTC)
found at http://weather.rap.ucar.edu/surface/
 
KEST 072352Z AUTO 10SM CLR 15/M07 A3003 RMK AO2 SLP174 T01501072 10156 20128 56016
KEST 072252Z AUTO 35005KT 10SM CLR 15/M08 A3004 RMK AO2 SLP178 T01501083
KEST 072152Z AUTO 34007KT 280V020 10SM CLR 16/M08 A3006 RMK AO2 SLP182 T01561078
KEST 072052Z AUTO 01010G19KT 10SM CLR 15/M07 A3008 RMK AO2 SLP188 T01501072 56018
KEST 071952Z AUTO 36009G19KT 10SM CLR 15/M07 A3009 RMK AO2 SLP191 T01501067
KEST 071852Z AUTO 34005G20KT 10SM CLR 14/M07 A3011 RMK AO2 SLP198 T01391072
KEST 071752Z AUTO 34011G22KT 10SM CLR 13/M07 A3013 RMK AO2 SLP206 T01281067 10139 20039 58005
KEST 071652Z AUTO 36014G19KT 10SM CLR 13/M06 A3015 RMK AO2 SLP211 T01281061
KEST 071552Z AUTO 36015G21KT 10SM CLR 11/M07 A3015 RMK AO2 SLP212 T01111067
KEST 071452Z AUTO 36013G20KT 10SM CLR 10/M04 A3015 RMK AO2 SLP215 T01001044 51010
KEST 071352Z AUTO 36011KT 10SM CLR 09/M01 A3015 RMK AO2 SLP214 T00891011
KEST 071252Z AUTO 01010KT 10SM CLR 07/01 A3014 RMK AO2 SLP209 T00670006
KEST 071152Z AUTO 34009KT 10SM CLR 04/00 A3012 RMK AO2 SLP204 T00390000 10106 20028 53013
KEST 071052Z AUTO 35009KT 10SM CLR 03/M01 A3010 RMK AO2 SLP197 T00331006
KEST 070952Z AUTO 35007KT 10SM FEW100 04/M01 A3009 RMK AO2 SLP194 T00441006